Time;durP1;ratioP1;P1;durP2;ratioP2;P2;SDS_P1;SDS_P2;PMS_P1;PMS_P2;Temp;Humidity;BMP_temperature;BMP_pressure;BME280_temperature;BME280_humidity;BME280_pressure;Samples;Min_cycle;Max_cycle;Signal;HPM_P1;HPM_P2
2022/01/26 00:06:48;;;;;;;3.70;2.33;;;6.30;90.80;;;;;;5133451;27;20039;-60
2022/01/26 00:09:16;;;;;;;5.32;2.60;;;6.30;90.80;;;;;;5114304;28;20092;-60
2022/01/26 00:11:43;;;;;;;4.60;3.35;;;6.30;90.80;;;;;;5133521;28;20039;-61
2022/01/26 00:14:13;;;;;;;4.70;2.72;;;6.30;90.60;;;;;;5131287;28;20039;-60
2022/01/26 00:16:43;;;;;;;4.78;2.40;;;6.30;90.60;;;;;;5098037;27;20039;-61
2022/01/26 00:19:18;;;;;;;6.90;3.95;;;6.30;90.50;;;;;;5131504;28;20419;-61
2022/01/26 00:21:52;;;;;;;7.15;3.38;;;6.30;90.30;;;;;;5115118;28;20047;-61
2022/01/26 00:24:50;;;;;;;4.80;2.50;;;6.20;90.30;;;;;;5128901;28;20422;-61
2022/01/26 00:31:24;;;;;;;5.78;2.75;;;6.10;90.20;;;;;;5128383;28;20070;-61
2022/01/26 00:41:07;;;;;;;4.05;2.35;;;6.10;90.20;;;;;;5130322;27;20488;-60
2022/01/26 00:43:38;;;;;;;4.45;2.50;;;6.00;90.30;;;;;;5132098;28;20043;-60
2022/01/26 00:46:07;;;;;;;7.15;2.40;;;6.00;90.70;;;;;;5132303;28;20051;-60
2022/01/26 00:48:37;;;;;;;5.65;3.00;;;6.00;90.50;;;;;;5120252;27;20036;-60
2022/01/26 00:51:06;;;;;;;3.88;2.10;;;6.00;90.60;;;;;;5132677;28;20447;-61
2022/01/26 00:53:40;;;;;;;4.60;2.00;;;6.00;90.50;;;;;;5124787;28;20042;-61
2022/01/26 00:56:08;;;;;;;3.92;2.13;;;6.00;90.60;;;;;;5133045;28;20035;-60
2022/01/26 00:58:36;;;;;;;5.07;2.22;;;6.00;90.60;;;;;;5128040;28;20492;-60
2022/01/26 01:01:05;;;;;;;3.28;2.42;;;6.00;90.60;;;;;;5114500;28;20039;-61
2022/01/26 01:03:36;;;;;;;3.25;2.00;;;6.10;90.60;;;;;;5132761;27;20108;-61
2022/01/26 01:06:15;;;;;;;4.43;2.22;;;6.10;90.60;;;;;;5124570;27;20093;-61
2022/01/26 01:08:45;;;;;;;5.03;1.98;;;6.10;90.70;;;;;;5125297;27;20039;-61
2022/01/26 01:11:13;;;;;;;4.97;2.00;;;6.10;90.70;;;;;;5136481;27;20126;-61
2022/01/26 01:13:43;;;;;;;4.15;2.70;;;6.10;90.70;;;;;;5126310;27;20042;-61
2022/01/26 01:16:16;;;;;;;4.03;2.47;;;6.10;90.80;;;;;;5118662;27;20039;-61
2022/01/26 01:19:07;;;;;;;2.53;1.83;;;6.10;90.80;;;;;;5117691;27;20557;-60
2022/01/26 01:29:22;;;;;;;2.63;1.67;;;6.10;90.90;;;;;;5123531;27;20039;-61
2022/01/26 01:31:54;;;;;;;5.68;2.00;;;6.10;91.10;;;;;;5117389;27;20090;-61
2022/01/26 01:34:30;;;;;;;3.53;1.98;;;6.10;91.10;;;;;;5074563;27;20134;-61
2022/01/26 01:37:03;;;;;;;;;;;6.10;91.20;;;;;;5135024;27;20063;-61
2022/01/26 01:39:31;;;;;;;3.88;2.53;;;6.10;91.20;;;;;;5131565;27;19927;-61
2022/01/26 01:42:00;;;;;;;4.22;2.38;;;6.20;91.20;;;;;;5134173;27;20506;-60
2022/01/26 01:44:28;;;;;;;5.05;1.95;;;6.20;91.30;;;;;;5132145;27;20066;-61
2022/01/26 01:46:57;;;;;;;5.20;2.85;;;6.20;91.40;;;;;;5134699;27;20062;-61
2022/01/26 01:49:25;;;;;;;3.47;1.77;;;6.10;91.40;;;;;;5105712;27;20053;-61
2022/01/26 01:51:57;;;;;;;4.60;2.33;;;6.10;91.40;;;;;;5103480;27;20035;-61
2022/01/26 01:54:25;;;;;;;4.78;2.25;;;6.10;91.50;;;;;;5125172;27;20460;-61
2022/01/26 01:56:56;;;;;;;5.75;3.38;;;6.10;91.50;;;;;;5134676;27;20512;-60
2022/01/26 01:59:32;;;;;;;2.15;1.50;;;6.10;91.50;;;;;;5128393;27;20063;-61
2022/01/26 02:02:00;;;;;;;3.25;1.90;;;6.20;91.50;;;;;;5133712;27;20554;-61
2022/01/26 02:04:28;;;;;;;4.10;1.83;;;6.20;91.50;;;;;;5128960;27;20043;-61
2022/01/26 02:06:56;;;;;;;4.82;2.28;;;6.20;91.50;;;;;;5115516;27;20047;-61
2022/01/26 02:09:24;;;;;;;4.47;1.92;;;6.20;91.40;;;;;;5116650;27;20035;-61
2022/01/26 02:11:55;;;;;;;2.50;1.73;;;6.20;91.50;;;;;;5116004;27;20126;-61
2022/01/26 02:14:31;;;;;;;3.42;2.08;;;6.20;91.40;;;;;;5124362;27;20039;-61
2022/01/26 03:02:57;;;;;;;4.50;1.90;;;6.00;91.60;;;;;;5117121;27;20056;-60
2022/01/26 03:05:31;;;;;;;5.40;2.78;;;6.00;91.80;;;;;;5134979;27;20456;-60
2022/01/26 03:08:03;;;;;;;3.67;2.10;;;5.90;91.80;;;;;;5135362;27;20550;-60
2022/01/26 03:10:44;;;;;;;3.83;2.13;;;5.80;91.80;;;;;;5135198;27;20497;-60
2022/01/26 03:13:18;;;;;;;29.35;2.58;;;5.80;91.80;;;;;;5135290;27;20047;-60
2022/01/26 03:15:51;;;;;;;5.38;2.85;;;5.70;91.90;;;;;;5117060;27;20446;-60
2022/01/26 03:21:08;;;;;;;3.88;2.40;;;5.70;92.00;;;;;;5135287;27;20046;-60
2022/01/26 03:34:20;;;;;;;3.55;2.05;;;5.60;92.00;;;;;;5116903;27;20051;-60
2022/01/26 03:36:51;;;;;;;3.50;2.13;;;5.60;92.20;;;;;;5134899;27;20078;-60
2022/01/26 03:39:21;;;;;;;7.45;2.28;;;5.60;92.20;;;;;;5116310;27;20141;-60
2022/01/26 03:41:55;;;;;;;3.35;2.05;;;5.50;92.20;;;;;;5134895;27;20047;-61
2022/01/26 03:44:23;;;;;;;4.85;2.58;;;5.50;92.20;;;;;;5134597;27;20047;-60
2022/01/26 03:46:51;;;;;;;4.03;2.67;;;5.50;92.20;;;;;;5116361;27;20059;-60
2022/01/26 03:49:18;;;;;;;5.43;3.08;;;5.50;92.20;;;;;;5116706;27;20400;-60
2022/01/26 03:51:46;;;;;;;5.47;2.80;;;5.40;92.30;;;;;;5116617;27;20047;-60
2022/01/26 03:54:16;;;;;;;4.60;3.38;;;5.40;92.30;;;;;;5116613;27;20551;-60
2022/01/26 03:56:43;;;;;;;5.60;4.28;;;5.40;92.40;;;;;;5116484;27;20067;-61
2022/01/26 03:59:11;;;;;;;4.90;2.80;;;5.40;92.50;;;;;;5134606;27;20397;-61
2022/01/26 04:01:39;;;;;;;3.25;2.28;;;5.40;92.50;;;;;;5099834;27;20407;-61
2022/01/26 04:04:07;;;;;;;6.60;2.97;;;5.30;92.40;;;;;;5134537;27;20070;-61
2022/01/26 04:06:35;;;;;;;4.88;2.47;;;5.30;92.50;;;;;;5116333;28;20043;-61
2022/01/26 04:09:06;;;;;;;4.38;2.08;;;5.30;92.60;;;;;;5134443;28;20039;-61
2022/01/26 04:14:09;;;;;;;4.55;2.25;;;5.20;92.60;;;;;;5134479;28;20051;-61
2022/01/26 04:16:38;;;;;;;6.80;2.25;;;5.20;92.60;;;;;;5115691;28;20051;-61
2022/01/26 04:19:07;;;;;;;3.92;2.55;;;5.20;92.80;;;;;;5134439;28;20031;-61
2022/01/26 04:26:52;;;;;;;5.75;2.38;;;5.20;92.70;;;;;;5134493;28;20039;-61
2022/01/26 04:29:31;;;;;;;3.63;2.33;;;5.20;92.80;;;;;;5115980;28;20053;-61
2022/01/26 04:32:01;;;;;;;6.00;2.58;;;5.10;92.70;;;;;;5116224;28;20126;-61
2022/01/26 04:34:29;;;;;;;5.78;1.98;;;5.10;92.80;;;;;;5134367;28;20043;-61
2022/01/26 04:37:04;;;;;;;4.25;2.38;;;5.00;92.70;;;;;;5134312;27;20039;-61
2022/01/26 04:39:38;;;;;;;3.33;2.05;;;5.00;92.90;;;;;;5120202;27;20045;-61
2022/01/26 04:42:12;;;;;;;4.22;2.15;;;5.00;93.00;;;;;;5120086;27;20465;-61
2022/01/26 04:44:49;;;;;;;5.32;2.33;;;4.90;93.10;;;;;;5138424;27;20043;-61
2022/01/26 04:47:16;;;;;;;5.88;2.35;;;4.90;93.20;;;;;;5138577;27;20051;-61
2022/01/26 04:49:44;;;;;;;6.82;2.35;;;4.90;93.10;;;;;;5138162;27;20134;-61
2022/01/26 04:52:12;;;;;;;4.82;2.00;;;4.90;93.10;;;;;;5120090;27;20042;-60
2022/01/26 04:54:39;;;;;;;4.13;2.13;;;4.90;93.10;;;;;;5138063;27;20043;-60
2022/01/26 04:57:07;;;;;;;3.35;2.22;;;4.90;93.30;;;;;;5138363;27;20456;-60
2022/01/26 04:59:34;;;;;;;4.90;2.28;;;4.80;93.20;;;;;;5119872;27;20409;-60
2022/01/26 05:02:02;;;;;;;6.22;2.50;;;4.90;93.30;;;;;;5119933;27;20043;-60
2022/01/26 05:04:29;;;;;;;4.57;2.35;;;4.80;93.30;;;;;;5138156;27;20405;-60
2022/01/26 05:06:57;;;;;;;4.78;2.80;;;4.70;93.30;;;;;;5137684;27;20126;-60
2022/01/26 05:09:24;;;;;;;4.57;2.28;;;4.80;93.50;;;;;;5137837;27;20047;-60
2022/01/26 05:11:54;;;;;;;4.65;2.33;;;4.80;93.40;;;;;;5137948;27;20085;-60
2022/01/26 05:14:22;;;;;;;3.67;2.17;;;4.80;93.50;;;;;;5119057;27;20501;-60
2022/01/26 05:16:50;;;;;;;5.05;2.70;;;4.80;93.70;;;;;;5119322;27;20390;-60
2022/01/26 05:19:17;;;;;;;3.75;2.55;;;4.80;93.60;;;;;;5137679;27;20103;-60
2022/01/26 05:21:45;;;;;;;5.28;2.55;;;4.80;93.70;;;;;;5119167;27;20477;-60
2022/01/26 05:24:12;;;;;;;5.07;3.08;;;4.80;93.70;;;;;;5137529;27;20043;-60
2022/01/26 05:26:40;;;;;;;3.58;2.25;;;4.80;93.60;;;;;;5119352;27;20048;-60
2022/01/26 05:29:11;;;;;;;5.90;2.55;;;4.80;93.80;;;;;;5119749;27;20534;-60
2022/01/26 05:31:38;;;;;;;6.15;2.63;;;4.90;93.80;;;;;;5119258;27;20054;-60
2022/01/26 05:34:07;;;;;;;5.10;2.33;;;4.80;93.70;;;;;;5119265;27;20453;-60
2022/01/26 05:36:34;;;;;;;4.88;3.10;;;4.80;93.70;;;;;;5137192;27;20035;-60
2022/01/26 05:39:03;;;;;;;6.15;2.88;;;4.80;93.60;;;;;;5137407;27;20051;-60
2022/01/26 05:41:31;;;;;;;4.13;3.15;;;4.90;93.60;;;;;;5136986;27;20043;-60
2022/01/26 05:43:59;;;;;;;4.20;2.72;;;4.90;93.70;;;;;;5137155;27;20137;-60
2022/01/26 05:46:36;;;;;;;4.63;3.08;;;4.90;93.50;;;;;;5136893;27;20050;-60
2022/01/26 05:49:03;;;;;;;7.20;3.33;;;4.80;93.60;;;;;;5136072;27;20071;-60
2022/01/26 05:51:32;;;;;;;4.70;2.90;;;4.80;93.60;;;;;;5136767;27;20486;-60
2022/01/26 05:54:02;;;;;;;5.65;3.00;;;4.80;93.70;;;;;;5136751;27;20087;-60
2022/01/26 05:56:30;;;;;;;5.05;2.92;;;4.80;93.60;;;;;;5136603;27;20088;-60
2022/01/26 05:58:58;;;;;;;5.15;2.40;;;4.80;93.60;;;;;;5136801;27;20064;-60
2022/01/26 06:01:26;;;;;;;5.00;2.85;;;4.80;93.70;;;;;;5118857;27;20064;-61
2022/01/26 06:03:54;;;;;;;4.30;3.05;;;4.80;93.70;;;;;;5136344;27;20039;-60
2022/01/26 06:06:21;;;;;;;6.65;3.80;;;4.80;93.50;;;;;;5136423;27;20668;-60
2022/01/26 06:08:49;;;;;;;3.78;2.63;;;4.80;93.50;;;;;;5136322;27;20492;-60
2022/01/26 06:11:16;;;;;;;5.88;2.72;;;4.80;93.50;;;;;;5136721;27;20214;-60
2022/01/26 06:13:44;;;;;;;7.22;3.88;;;4.90;93.60;;;;;;5136129;27;20035;-60
2022/01/26 06:16:13;;;;;;;6.93;3.60;;;4.90;93.50;;;;;;5136266;27;20046;-60
2022/01/26 06:18:41;;;;;;;5.63;3.17;;;5.00;93.50;;;;;;5136387;27;20048;-61
2022/01/26 06:21:08;;;;;;;4.32;2.95;;;5.10;93.40;;;;;;5101081;27;20051;-61
2022/01/26 06:23:36;;;;;;;8.82;3.30;;;5.40;93.30;;;;;;5136109;27;20047;-61
2022/01/26 06:26:04;;;;;;;5.43;3.17;;;5.80;92.50;;;;;;5117903;27;20493;-61
2022/01/26 06:28:32;;;;;;;6.10;3.17;;;6.30;91.80;;;;;;5117800;27;20079;-61
2022/01/26 06:31:10;;;;;;;5.82;3.40;;;6.90;90.90;;;;;;5135743;27;20047;-61
2022/01/26 06:33:42;;;;;;;6.95;4.38;;;7.50;90.00;;;;;;5136266;27;20047;-61
2022/01/26 06:36:14;;;;;;;9.00;5.05;;;8.10;88.40;;;;;;5117511;27;20035;-61
2022/01/26 06:38:43;;;;;;;20.95;9.60;;;8.60;86.80;;;;;;5135878;27;20043;-61
2022/01/26 06:41:12;;;;;;;18.67;7.30;;;9.30;85.20;;;;;;5135716;27;20075;-61
2022/01/26 06:43:50;;;;;;;18.02;8.10;;;9.90;83.30;;;;;;5135658;27;20485;-61
2022/01/26 06:51:53;;;;;;;4.72;3.28;;;11.90;77.30;;;;;;5052147;28;20095;-61
2022/01/26 06:54:20;;;;;;;6.43;3.15;;;12.50;76.00;;;;;;5103827;27;20477;-61
2022/01/26 06:56:48;;;;;;;6.68;3.70;;;13.00;74.60;;;;;;5116959;27;20135;-61
2022/01/26 06:59:20;;;;;;;7.80;3.78;;;13.60;73.20;;;;;;5135440;27;20043;-61
2022/01/26 07:01:47;;;;;;;6.38;3.28;;;14.20;72.10;;;;;;5135019;27;20031;-61
2022/01/26 07:04:15;;;;;;;5.60;3.00;;;14.70;70.60;;;;;;5117216;27;20035;-61
2022/01/26 07:06:43;;;;;;;4.50;2.60;;;15.20;69.20;;;;;;5135373;27;20050;-61
2022/01/26 07:09:10;;;;;;;3.47;2.55;;;15.60;68.20;;;;;;5116712;27;20456;-61
2022/01/26 07:11:38;;;;;;;7.63;3.30;;;16.00;67.50;;;;;;5134959;27;20038;-61
2022/01/26 07:14:09;;;;;;;6.00;3.20;;;16.50;66.50;;;;;;5134959;27;20282;-61
2022/01/26 07:22:09;;;;;;;8.13;5.10;;;17.80;64.60;;;;;;5134943;27;20044;-61
2022/01/26 07:24:36;;;;;;;9.63;5.30;;;18.20;64.30;;;;;;5134932;27;20051;-61
2022/01/26 07:27:04;;;;;;;7.07;5.25;;;18.50;63.20;;;;;;5131533;27;20050;-62
2022/01/26 07:29:32;;;;;;;11.85;6.03;;;18.70;62.80;;;;;;5125422;27;20039;-61
2022/01/26 07:32:02;;;;;;;6.07;4.55;;;18.60;62.60;;;;;;5133322;27;20080;-61
2022/01/26 07:34:29;;;;;;;5.68;4.15;;;18.60;62.90;;;;;;5114523;27;20149;-61
2022/01/26 07:36:59;;;;;;;6.07;4.30;;;18.40;62.90;;;;;;5133831;27;20114;-61
2022/01/26 07:39:41;;;;;;;8.35;4.43;;;18.20;63.10;;;;;;5129282;27;20063;-62
2022/01/26 07:42:11;;;;;;;5.25;3.17;;;18.00;62.70;;;;;;5133588;27;20489;-61
2022/01/26 07:44:45;;;;;;;5.57;2.92;;;17.70;62.70;;;;;;5114305;27;20139;-61
2022/01/26 07:47:12;;;;;;;6.18;2.53;;;17.50;62.80;;;;;;5133182;27;20053;-61
2022/01/26 07:49:40;;;;;;;4.57;2.47;;;17.20;63.10;;;;;;5125678;27;20058;-61
2022/01/26 07:52:08;;;;;;;4.93;2.97;;;17.00;63.10;;;;;;5133457;27;20497;-61
2022/01/26 07:54:35;;;;;;;4.05;2.58;;;16.90;63.40;;;;;;5113816;27;20455;-61
2022/01/26 07:57:03;;;;;;;6.55;3.33;;;16.80;63.50;;;;;;5133545;27;20039;-61
2022/01/26 07:59:31;;;;;;;5.80;2.85;;;16.70;63.80;;;;;;5131218;27;20552;-61
2022/01/26 08:01:58;;;;;;;4.90;2.80;;;16.60;63.80;;;;;;5133486;27;20112;-61
2022/01/26 08:04:26;;;;;;;4.75;2.60;;;16.60;63.80;;;;;;5113887;27;20043;-61
2022/01/26 08:06:54;;;;;;;4.97;2.80;;;16.60;64.10;;;;;;5132999;27;20043;-61
2022/01/26 08:09:21;;;;;;;4.65;2.80;;;16.60;64.30;;;;;;5124196;27;20053;-61
2022/01/26 08:11:49;;;;;;;3.97;2.08;;;16.60;64.30;;;;;;5124647;27;20450;-62
2022/01/26 08:14:16;;;;;;;4.95;3.10;;;16.50;64.10;;;;;;5114943;28;20081;-61
2022/01/26 08:16:44;;;;;;;6.07;3.30;;;16.40;64.30;;;;;;5133375;28;20035;-62
2022/01/26 08:19:13;;;;;;;7.55;2.80;;;16.20;64.60;;;;;;5115764;28;20039;-61
2022/01/26 08:21:42;;;;;;;10.05;3.75;;;16.10;65.40;;;;;;5134152;28;20433;-61
2022/01/26 08:24:14;;;;;;;10.15;3.30;;;15.90;65.60;;;;;;5134627;28;20547;-61
2022/01/26 08:26:46;;;;;;;5.07;2.40;;;15.60;66.10;;;;;;5134348;28;20038;-61
2022/01/26 08:29:25;;;;;;;4.68;2.75;;;15.40;66.50;;;;;;5134775;28;20159;-61
2022/01/26 08:31:53;;;;;;;4.03;2.70;;;15.20;67.00;;;;;;5134461;28;20038;-61
2022/01/26 08:34:21;;;;;;;6.63;3.50;;;14.90;67.30;;;;;;5134353;28;20039;-61
2022/01/26 08:36:48;;;;;;;5.68;3.40;;;14.80;68.00;;;;;;5134337;28;20400;-61
2022/01/26 08:39:16;;;;;;;6.93;3.00;;;14.60;68.50;;;;;;5134265;28;20031;-62
2022/01/26 08:41:44;;;;;;;4.68;3.42;;;14.50;69.10;;;;;;5116099;28;20382;-61
2022/01/26 08:44:12;;;;;;;6.70;3.13;;;14.40;69.50;;;;;;5115840;28;20085;-61
2022/01/26 08:46:39;;;;;;;6.70;3.22;;;14.20;70.00;;;;;;5134012;28;20046;-62
2022/01/26 08:49:07;;;;;;;4.55;2.17;;;14.20;70.40;;;;;;5113603;28;20142;-61
2022/01/26 08:51:35;;;;;;;3.63;2.42;;;14.10;71.40;;;;;;5113530;28;20486;-62
2022/01/26 08:54:04;;;;;;;4.22;2.30;;;14.00;72.40;;;;;;5113706;28;20067;-61
2022/01/26 08:56:31;;;;;;;6.50;2.45;;;14.10;71.20;;;;;;5113338;28;20040;-61
2022/01/26 08:58:59;;;;;;;4.90;3.38;;;14.10;70.80;;;;;;5113666;28;20036;-62
2022/01/26 09:01:26;;;;;;;7.35;3.67;;;14.20;71.60;;;;;;5078886;28;20129;-61
2022/01/26 09:03:54;;;;;;;6.38;3.97;;;14.10;71.30;;;;;;5113360;28;20046;-61
2022/01/26 09:06:22;;;;;;;5.50;2.65;;;14.20;71.40;;;;;;5113422;28;20054;-61
2022/01/26 09:09:00;;;;;;;5.82;2.65;;;14.20;71.50;;;;;;5113570;28;20126;-61
2022/01/26 09:11:28;;;;;;;4.40;2.60;;;14.20;71.60;;;;;;5113192;28;20043;-61
2022/01/26 09:13:58;;;;;;;4.28;3.00;;;14.30;71.70;;;;;;5113641;28;20077;-61
2022/01/26 09:16:27;;;;;;;4.45;2.13;;;14.40;71.80;;;;;;5113257;28;20090;-61
2022/01/26 09:18:59;;;;;;;5.00;2.20;;;14.30;71.70;;;;;;5113520;28;20126;-61
2022/01/26 09:21:26;;;;;;;3.75;2.10;;;14.20;71.60;;;;;;5113377;28;20518;-61
2022/01/26 09:23:54;;;;;;;5.90;2.33;;;14.10;71.10;;;;;;5114396;28;20040;-61
2022/01/26 09:26:22;;;;;;;4.53;2.50;;;13.90;71.60;;;;;;5117289;28;20039;-61
2022/01/26 09:28:49;;;;;;;3.08;1.83;;;13.60;72.40;;;;;;5116806;28;20097;-61
2022/01/26 09:31:17;;;;;;;6.68;3.42;;;13.40;73.00;;;;;;5098707;28;20712;-61
2022/01/26 09:33:44;;;;;;;12.35;3.40;;;13.30;73.60;;;;;;5116754;28;20363;-61
2022/01/26 09:36:12;;;;;;;16.77;4.10;;;13.20;74.00;;;;;;5116656;28;20077;-61
2022/01/26 09:38:39;;;;;;;9.93;3.22;;;13.10;74.10;;;;;;5116688;28;20138;-61
2022/01/26 09:41:07;;;;;;;6.18;2.25;;;13.00;74.50;;;;;;5116828;28;20047;-61
2022/01/26 09:43:35;;;;;;;3.30;2.00;;;12.80;74.50;;;;;;5117009;28;20043;-61
2022/01/26 09:46:02;;;;;;;3.10;1.65;;;12.70;74.90;;;;;;5116941;28;20047;-61
2022/01/26 09:48:33;;;;;;;3.45;1.63;;;12.50;75.10;;;;;;5116613;28;20048;-61
2022/01/26 09:51:01;;;;;;;3.58;1.70;;;12.40;75.40;;;;;;5098156;28;20035;-61
2022/01/26 09:53:32;;;;;;;4.53;2.28;;;12.40;75.90;;;;;;5116402;28;20130;-61
2022/01/26 09:55:59;;;;;;;7.72;3.30;;;12.40;76.70;;;;;;5116360;28;20039;-61
2022/01/26 09:58:28;;;;;;;5.28;3.10;;;12.30;77.00;;;;;;5115949;28;20075;-61
2022/01/26 10:00:58;;;;;;;4.45;2.67;;;12.10;76.70;;;;;;5116568;28;20481;-61
2022/01/26 10:03:30;;;;;;;7.97;3.20;;;12.00;77.10;;;;;;5116057;28;20405;-61
2022/01/26 10:05:58;;;;;;;8.18;3.78;;;12.00;77.50;;;;;;5115976;28;20572;-61
2022/01/26 10:19:08;;;;;;;8.07;2.88;;;12.50;77.50;;;;;;5115879;28;20048;-61
2022/01/26 10:21:49;;;;;;;4.40;2.50;;;12.50;77.20;;;;;;5116068;28;20039;-61
2022/01/26 10:24:20;;;;;;;3.78;2.15;;;12.80;76.90;;;;;;5115558;28;20051;-61
2022/01/26 10:26:49;;;;;;;5.90;2.45;;;13.10;76.90;;;;;;5115548;28;20048;-61
2022/01/26 10:29:17;;;;;;;4.22;2.45;;;13.30;76.10;;;;;;5115286;28;20130;-61
2022/01/26 10:31:45;;;;;;;4.40;2.20;;;13.50;75.70;;;;;;5097148;28;20043;-61
2022/01/26 10:34:14;;;;;;;4.40;2.83;;;13.50;75.30;;;;;;5115422;28;20089;-62
2022/01/26 10:36:58;;;;;;;4.47;2.33;;;13.40;75.70;;;;;;5114674;28;20551;-61
2022/01/26 10:39:31;;;;;;;5.15;2.67;;;13.30;77.00;;;;;;5115161;28;20039;-62
2022/01/26 10:42:04;;;;;;;5.28;3.00;;;13.10;77.80;;;;;;5115248;28;20078;-61
2022/01/26 10:44:39;;;;;;;7.93;3.47;;;13.00;77.60;;;;;;5115054;28;20047;-61
2022/01/26 10:47:07;;;;;;;5.50;2.97;;;12.80;77.30;;;;;;5118756;27;20043;-61
2022/01/26 10:52:22;;;;;;;3.63;2.63;;;12.30;78.70;;;;;;5136029;27;20035;-61
2022/01/26 10:54:52;;;;;;;5.88;2.70;;;12.10;79.70;;;;;;5117411;27;20131;-61
2022/01/26 10:57:19;;;;;;;7.50;3.17;;;12.00;81.20;;;;;;5135782;27;20088;-61
2022/01/26 10:59:49;;;;;;;6.47;3.53;;;11.80;83.50;;;;;;5135727;27;20039;-61
2022/01/26 11:02:22;;;;;;;5.50;4.20;;;11.70;84.30;;;;;;5135538;27;20427;-61
2022/01/26 11:04:50;;;;;;;10.35;5.80;;;11.50;84.90;;;;;;5135717;27;20481;-61
2022/01/26 11:07:18;;;;;;;9.55;5.20;;;11.40;86.70;;;;;;5135562;27;20481;-61
2022/01/26 11:09:48;;;;;;;6.82;4.03;;;11.30;88.80;;;;;;5135607;27;20039;-61
2022/01/26 11:12:27;;;;;;;6.05;3.42;;;11.30;90.30;;;;;;5135602;27;20504;-61
2022/01/26 11:15:09;;;;;;;6.82;3.65;;;11.30;91.00;;;;;;5135455;27;20077;-61
2022/01/26 11:17:43;;;;;;;5.53;3.53;;;11.40;91.80;;;;;;5135459;27;20396;-61
2022/01/26 11:20:17;;;;;;;7.60;4.18;;;11.50;92.30;;;;;;5117033;27;20459;-61
2022/01/26 11:22:53;;;;;;;9.10;4.30;;;11.60;92.50;;;;;;5135402;27;20031;-61
2022/01/26 11:25:23;;;;;;;8.90;4.40;;;11.60;92.20;;;;;;5135288;27;20039;-61
2022/01/26 11:27:52;;;;;;;10.07;5.80;;;11.60;91.60;;;;;;5134963;27;20489;-61
2022/01/26 11:30:32;;;;;;;7.38;5.03;;;11.70;91.40;;;;;;5134976;27;20067;-61
2022/01/26 11:33:04;;;;;;;8.95;5.72;;;11.80;91.00;;;;;;5135009;27;20039;-61
2022/01/26 11:35:36;;;;;;;10.48;6.95;;;11.80;90.90;;;;;;5116938;27;20046;-61
2022/01/26 11:47:19;;;;;;;8.25;5.85;;;12.30;90.60;;;;;;5133583;27;20073;-61
2022/01/26 11:49:52;;;;;;;8.02;5.05;;;12.50;90.10;;;;;;5134054;27;20507;-61
2022/01/26 11:52:26;;;;;;;8.50;5.50;;;12.60;89.60;;;;;;5134869;27;20045;-61
2022/01/26 11:54:57;;;;;;;12.00;6.88;;;12.60;89.00;;;;;;5116692;27;20035;-62
2022/01/26 11:57:51;;;;;;;14.05;8.00;;;12.50;89.20;;;;;;5134796;27;20043;-62
2022/01/26 12:00:45;;;;;;;10.18;6.07;;;12.50;90.00;;;;;;5134508;27;20052;-61
2022/01/26 12:03:21;;;;;;;7.57;4.85;;;12.40;90.00;;;;;;5134608;27;20460;-61
2022/01/26 12:05:51;;;;;;;11.13;5.60;;;12.30;90.20;;;;;;5099223;27;20050;-61
2022/01/26 12:08:35;;;;;;;12.20;9.52;;;12.20;90.50;;;;;;5134414;27;20092;-61
2022/01/26 12:11:05;;;;;;;12.85;6.85;;;12.10;90.90;;;;;;5134732;28;20067;-62
2022/01/26 12:13:36;;;;;;;6.75;4.65;;;11.90;91.40;;;;;;5134529;28;20069;-62
2022/01/26 12:16:15;;;;;;;8.48;5.18;;;11.90;91.80;;;;;;5134397;28;20051;-61
2022/01/26 12:35:22;;;;;;;11.73;4.80;;;12.40;94.00;;;;;;5134022;28;20042;-61
2022/01/26 12:38:10;;;;;;;9.13;5.55;;;12.40;94.20;;;;;;5115782;28;20039;-61
2022/01/26 12:43:47;;;;;;;9.20;4.95;;;12.50;94.80;;;;;;5133825;28;20042;-61
2022/01/26 12:46:22;;;;;;;7.10;4.28;;;12.50;94.70;;;;;;5116010;28;20071;-61
2022/01/26 12:48:57;;;;;;;7.75;4.45;;;12.50;94.60;;;;;;5115325;28;20051;-61
2022/01/26 12:51:27;;;;;;;11.18;3.42;;;12.40;94.60;;;;;;5133974;28;20551;-61
2022/01/26 12:54:00;;;;;;;7.40;4.95;;;12.20;94.50;;;;;;5115786;28;20039;-61
2022/01/26 12:56:30;;;;;;;9.35;4.10;;;12.20;94.80;;;;;;5115855;28;20155;-61
2022/01/26 12:59:03;;;;;;;7.55;4.57;;;12.20;94.90;;;;;;5135297;27;20038;-61
2022/01/26 13:01:31;;;;;;;10.50;4.70;;;12.10;94.90;;;;;;5119590;27;20043;-61
2022/01/26 13:04:01;;;;;;;9.27;5.00;;;12.00;95.20;;;;;;5137862;27;20071;-61
2022/01/26 13:06:39;;;;;;;9.20;4.90;;;11.90;95.40;;;;;;5119426;27;20071;-61
2022/01/26 13:09:28;;;;;;;6.20;4.50;;;11.70;95.60;;;;;;5137841;27;20043;-62
2022/01/26 13:11:58;;;;;;;10.77;5.10;;;11.70;96.00;;;;;;5119421;27;20400;-61
2022/01/26 13:14:32;;;;;;;6.65;4.60;;;11.80;96.50;;;;;;5137284;27;20126;-61
2022/01/26 13:30:56;;;;;;;8.38;4.63;;;11.80;96.00;;;;;;5118872;27;20118;-61
2022/01/26 13:36:35;;;;;;;8.90;3.97;;;11.60;95.50;;;;;;5136875;27;20039;-60
2022/01/26 13:42:10;;;;;;;7.03;5.05;;;11.60;94.70;;;;;;5136832;27;20090;-61
2022/01/26 13:52:36;;;;;;;5.35;2.78;;;11.80;93.50;;;;;;5118083;27;20385;-61
2022/01/26 14:01:21;;;;;;;4.55;2.83;;;11.50;93.60;;;;;;5136760;27;20055;-61
2022/01/26 14:03:46;;;;;;;5.13;3.25;;;11.50;93.80;;;;;;5116197;27;20104;-61
2022/01/26 14:06:14;;;;;;;7.55;3.97;;;11.50;93.70;;;;;;5118111;27;20043;-62
2022/01/26 14:08:41;;;;;;;6.75;4.72;;;11.50;93.80;;;;;;5136336;27;20508;-61
2022/01/26 14:11:09;;;;;;;5.25;2.88;;;11.50;94.10;;;;;;5135213;27;20043;-62
2022/01/26 14:13:38;;;;;;;5.95;3.05;;;11.50;94.20;;;;;;5118026;27;20523;-62
2022/01/26 14:16:08;;;;;;;3.88;2.35;;;11.50;94.30;;;;;;5136096;27;20053;-62
2022/01/26 14:19:05;;;;;;;5.90;2.42;;;11.40;94.20;;;;;;5136624;27;20047;-62
2022/01/26 14:26:54;;;;;;;4.95;2.58;;;11.60;95.10;;;;;;5117606;27;20118;-64
2022/01/26 14:29:33;;;;;;;4.75;2.63;;;11.60;94.80;;;;;;5135309;27;20058;-64
2022/01/26 15:10:24;;;;;;;;;;;10.50;95.30;;;;;;5135925;27;20101;-64
2022/01/26 15:35:18;;;;;;;12.40;9.20;;;10.20;95.10;;;;;;5135126;27;20045;-64
2022/01/26 15:51:13;;;;;;;10.90;7.35;;;10.10;94.90;;;;;;5135078;27;20039;-64
2022/01/26 15:57:23;;;;;;;14.68;7.90;;;10.10;94.90;;;;;;5134893;27;20042;-63
2022/01/26 16:07:19;;;;;;;14.98;9.20;;;10.10;94.60;;;;;;5115905;28;20070;-64
2022/01/26 16:12:54;;;;;;;14.60;8.97;;;10.10;94.40;;;;;;5134756;28;20046;-64
2022/01/26 17:43:49;;;;;;;21.20;15.95;;;9.50;95.50;;;;;;5098294;28;20328;-64
2022/01/26 18:31:44;;;;;;;18.08;14.57;;;9.30;95.50;;;;;;5115955;28;20051;-61
2022/01/26 18:32:29;;;;;;;17.02;13.20;;;9.30;95.40;;;;;;5092072;28;20083;-62
2022/01/26 18:40:41;;;;;;;17.27;13.73;;;9.20;95.50;;;;;;5085884;28;20084;-62
2022/01/26 18:51:32;;;;;;;35.72;23.10;;;9.20;95.70;;;;;;5104849;28;20393;-61
2022/01/26 18:54:00;;;;;;;28.02;22.05;;;9.10;95.70;;;;;;5112745;28;20026;-61
2022/01/26 18:56:28;;;;;;;30.20;21.92;;;9.20;95.70;;;;;;5078489;28;20035;-61
2022/01/26 18:58:56;;;;;;;27.48;20.17;;;9.10;95.70;;;;;;5100723;28;20043;-61
2022/01/26 19:01:24;;;;;;;31.08;19.73;;;9.10;95.80;;;;;;5091378;28;20032;-62
2022/01/26 19:03:53;;;;;;;27.70;20.15;;;9.10;95.80;;;;;;5095218;28;20032;-62
2022/01/26 19:06:20;;;;;;;33.50;21.30;;;9.10;95.70;;;;;;5109801;28;20085;-62
2022/01/26 19:08:48;;;;;;;30.67;22.50;;;9.10;95.80;;;;;;5075043;28;20044;-62
2022/01/26 19:11:17;;;;;;;28.45;20.88;;;9.00;95.70;;;;;;5093582;28;20467;-62
2022/01/26 19:13:46;;;;;;;29.05;20.38;;;9.10;95.80;;;;;;5112837;28;20127;-62
2022/01/26 19:16:26;;;;;;;30.10;19.73;;;9.00;95.80;;;;;;5093087;28;20540;-62
2022/01/26 19:19:04;;;;;;;31.02;21.88;;;9.00;95.90;;;;;;5111906;28;20069;-63
2022/01/26 19:26:48;;;;;;;32.60;20.75;;;9.00;96.20;;;;;;5111142;28;20393;-62
2022/01/26 19:40:46;;;;;;;19.67;11.77;;;9.00;96.50;;;;;;5079387;28;20075;-62
2022/01/26 19:51:10;;;;;;;18.23;11.85;;;8.90;96.30;;;;;;5121455;27;20047;-61
2022/01/26 19:53:38;;;;;;;17.67;11.80;;;9.00;96.40;;;;;;5116495;27;20125;-61
2022/01/26 19:56:07;;;;;;;21.98;13.07;;;9.00;96.30;;;;;;5116246;27;20108;-62
2022/01/26 19:58:34;;;;;;;21.15;14.30;;;9.00;96.30;;;;;;5134124;27;20363;-63
2022/01/26 20:01:05;;;;;;;19.23;11.90;;;9.10;96.40;;;;;;5116052;27;20047;-62
2022/01/26 20:03:37;;;;;;;20.55;12.45;;;9.00;96.30;;;;;;5115707;27;20043;-62
2022/01/26 20:06:08;;;;;;;20.85;12.93;;;9.00;96.30;;;;;;5115440;28;20165;-62
2022/01/26 20:08:41;;;;;;;19.65;14.55;;;9.00;96.30;;;;;;5133606;27;20047;-62
2022/01/26 20:11:24;;;;;;;20.05;13.90;;;9.00;96.30;;;;;;5129459;27;20447;-63
2022/01/26 20:13:54;;;;;;;22.30;13.95;;;9.00;96.30;;;;;;5114203;28;20042;-62
2022/01/26 20:16:22;;;;;;;23.30;14.48;;;9.00;96.20;;;;;;5120503;28;20122;-62
2022/01/26 20:18:49;;;;;;;22.98;13.38;;;9.00;96.40;;;;;;5123987;28;20039;-62
2022/01/26 20:21:17;;;;;;;21.77;13.93;;;8.90;96.30;;;;;;5131859;27;20126;-63
2022/01/26 20:23:45;;;;;;;22.77;15.73;;;9.00;96.40;;;;;;5126151;28;20497;-62
2022/01/26 20:26:12;;;;;;;20.45;14.60;;;8.90;96.40;;;;;;5115350;28;20071;-62
2022/01/26 20:28:42;;;;;;;20.98;14.32;;;8.90;96.50;;;;;;5132364;28;20039;-62
2022/01/26 20:31:18;;;;;;;21.17;14.15;;;8.90;96.50;;;;;;5133091;28;20039;-62